sensor_id;sensor_type;location;lat;lon;timestamp;P1;durP1;ratioP1;P2;durP2;ratioP2
42702;SDS011;28341;52.064;4.920;2022-09-24T00:01:20;20.92;;;18.50;;
42702;SDS011;28341;52.064;4.920;2022-09-24T00:03:29;24.55;;;20.75;;
42702;SDS011;28341;52.064;4.920;2022-09-24T00:05:35;21.98;;;19.70;;
42702;SDS011;28341;52.064;4.920;2022-09-24T00:07:40;23.38;;;20.88;;
42702;SDS011;28341;52.064;4.920;2022-09-24T00:09:44;24.38;;;20.00;;
42702;SDS011;28341;52.064;4.920;2022-09-24T00:11:49;22.38;;;20.00;;
42702;SDS011;28341;52.064;4.920;2022-09-24T00:13:55;23.15;;;19.33;;
42702;SDS011;28341;52.064;4.920;2022-09-24T00:16:01;21.88;;;19.58;;
42702;SDS011;28341;52.064;4.920;2022-09-24T00:18:07;22.60;;;19.73;;
42702;SDS011;28341;52.064;4.920;2022-09-24T00:20:15;23.38;;;19.77;;
42702;SDS011;28341;52.064;4.920;2022-09-24T00:22:22;22.95;;;20.02;;
42702;SDS011;28341;52.064;4.920;2022-09-24T00:24:33;22.67;;;20.20;;
42702;SDS011;28341;52.064;4.920;2022-09-24T00:26:50;25.35;;;21.73;;
42702;SDS011;28341;52.064;4.920;2022-09-24T00:28:55;27.63;;;23.35;;
42702;SDS011;28341;52.064;4.920;2022-09-24T00:31:02;22.65;;;20.05;;
42702;SDS011;28341;52.064;4.920;2022-09-24T00:33:08;26.23;;;22.88;;
42702;SDS011;28341;52.064;4.920;2022-09-24T00:35:15;26.50;;;23.65;;
42702;SDS011;28341;52.064;4.920;2022-09-24T00:37:19;33.38;;;27.92;;
42702;SDS011;28341;52.064;4.920;2022-09-24T00:39:24;31.88;;;27.63;;
42702;SDS011;28341;52.064;4.920;2022-09-24T00:41:33;31.75;;;27.58;;
42702;SDS011;28341;52.064;4.920;2022-09-24T00:43:39;31.65;;;27.42;;
42702;SDS011;28341;52.064;4.920;2022-09-24T00:45:45;37.38;;;31.30;;
42702;SDS011;28341;52.064;4.920;2022-09-24T00:47:49;35.25;;;29.50;;
42702;SDS011;28341;52.064;4.920;2022-09-24T00:49:55;36.45;;;31.33;;
42702;SDS011;28341;52.064;4.920;2022-09-24T00:52:26;35.42;;;29.77;;
42702;SDS011;28341;52.064;4.920;2022-09-24T00:54:31;33.33;;;29.10;;
42702;SDS011;28341;52.064;4.920;2022-09-24T00:56:37;34.15;;;29.70;;
42702;SDS011;28341;52.064;4.920;2022-09-24T00:58:43;36.08;;;30.90;;
42702;SDS011;28341;52.064;4.920;2022-09-24T01:00:53;32.50;;;28.15;;
42702;SDS011;28341;52.064;4.920;2022-09-24T01:03:04;33.95;;;30.35;;
42702;SDS011;28341;52.064;4.920;2022-09-24T01:05:11;31.40;;;27.88;;
42702;SDS011;28341;52.064;4.920;2022-09-24T01:07:15;33.42;;;29.63;;
42702;SDS011;28341;52.064;4.920;2022-09-24T01:09:23;33.97;;;29.17;;
42702;SDS011;28341;52.064;4.920;2022-09-24T01:11:33;35.13;;;30.70;;
42702;SDS011;28341;52.064;4.920;2022-09-24T01:13:49;33.05;;;29.45;;
42702;SDS011;28341;52.064;4.920;2022-09-24T01:16:08;35.58;;;31.23;;
42702;SDS011;28341;52.064;4.920;2022-09-24T01:18:20;35.28;;;30.52;;
42702;SDS011;28341;52.064;4.920;2022-09-24T01:23:26;35.45;;;31.45;;
42702;SDS011;28341;52.064;4.920;2022-09-24T01:26:07;36.85;;;32.90;;
42702;SDS011;28341;52.064;4.920;2022-09-24T01:28:27;37.72;;;33.42;;
42702;SDS011;28341;52.064;4.920;2022-09-24T01:30:40;43.25;;;35.88;;
42702;SDS011;28341;52.064;4.920;2022-09-24T01:32:47;41.97;;;33.70;;
42702;SDS011;28341;52.064;4.920;2022-09-24T01:34:56;38.05;;;33.30;;
42702;SDS011;28341;52.064;4.920;2022-09-24T01:37:02;41.03;;;35.55;;
42702;SDS011;28341;52.064;4.920;2022-09-24T01:39:07;38.72;;;33.85;;
42702;SDS011;28341;52.064;4.920;2022-09-24T01:41:13;42.22;;;35.58;;
42702;SDS011;28341;52.064;4.920;2022-09-24T01:43:20;40.05;;;34.78;;
42702;SDS011;28341;52.064;4.920;2022-09-24T01:45:27;40.83;;;34.83;;
42702;SDS011;28341;52.064;4.920;2022-09-24T01:47:36;40.83;;;34.88;;
42702;SDS011;28341;52.064;4.920;2022-09-24T01:49:42;39.80;;;34.17;;
42702;SDS011;28341;52.064;4.920;2022-09-24T01:51:47;39.95;;;33.13;;
42702;SDS011;28341;52.064;4.920;2022-09-24T01:53:56;39.08;;;33.00;;
42702;SDS011;28341;52.064;4.920;2022-09-24T01:56:04;36.70;;;31.88;;
42702;SDS011;28341;52.064;4.920;2022-09-24T01:58:13;38.53;;;32.88;;
42702;SDS011;28341;52.064;4.920;2022-09-24T02:00:21;39.38;;;33.40;;
42702;SDS011;28341;52.064;4.920;2022-09-24T02:02:26;39.60;;;32.75;;
42702;SDS011;28341;52.064;4.920;2022-09-24T02:04:38;35.80;;;31.42;;
42702;SDS011;28341;52.064;4.920;2022-09-24T02:06:48;39.05;;;32.38;;
42702;SDS011;28341;52.064;4.920;2022-09-24T02:08:57;36.72;;;32.33;;
42702;SDS011;28341;52.064;4.920;2022-09-24T02:11:02;36.42;;;31.13;;
42702;SDS011;28341;52.064;4.920;2022-09-24T02:13:10;40.35;;;34.90;;
42702;SDS011;28341;52.064;4.920;2022-09-24T02:15:16;36.80;;;31.88;;
42702;SDS011;28341;52.064;4.920;2022-09-24T02:17:23;36.08;;;31.83;;
42702;SDS011;28341;52.064;4.920;2022-09-24T02:19:30;38.67;;;32.95;;
42702;SDS011;28341;52.064;4.920;2022-09-24T02:21:41;39.17;;;32.42;;
42702;SDS011;28341;52.064;4.920;2022-09-24T02:23:52;39.28;;;34.40;;
42702;SDS011;28341;52.064;4.920;2022-09-24T02:25:59;41.65;;;33.88;;
42702;SDS011;28341;52.064;4.920;2022-09-24T02:28:04;35.13;;;31.00;;
42702;SDS011;28341;52.064;4.920;2022-09-24T02:30:09;36.70;;;32.67;;
42702;SDS011;28341;52.064;4.920;2022-09-24T02:32:14;37.40;;;31.60;;
42702;SDS011;28341;52.064;4.920;2022-09-24T02:34:22;36.97;;;31.88;;
42702;SDS011;28341;52.064;4.920;2022-09-24T02:36:31;39.95;;;34.83;;
42702;SDS011;28341;52.064;4.920;2022-09-24T02:38:38;34.40;;;30.58;;
42702;SDS011;28341;52.064;4.920;2022-09-24T02:40:42;39.42;;;33.28;;
42702;SDS011;28341;52.064;4.920;2022-09-24T02:42:47;36.92;;;31.98;;
42702;SDS011;28341;52.064;4.920;2022-09-24T02:44:51;37.17;;;32.25;;
42702;SDS011;28341;52.064;4.920;2022-09-24T02:46:58;39.50;;;33.60;;
42702;SDS011;28341;52.064;4.920;2022-09-24T02:49:02;39.10;;;34.67;;
42702;SDS011;28341;52.064;4.920;2022-09-24T02:51:07;40.22;;;34.53;;
42702;SDS011;28341;52.064;4.920;2022-09-24T02:53:11;42.67;;;36.30;;
42702;SDS011;28341;52.064;4.920;2022-09-24T02:55:18;42.22;;;34.03;;
42702;SDS011;28341;52.064;4.920;2022-09-24T02:57:23;41.58;;;35.03;;
42702;SDS011;28341;52.064;4.920;2022-09-24T02:59:27;44.70;;;36.78;;
42702;SDS011;28341;52.064;4.920;2022-09-24T03:01:32;41.88;;;35.10;;
42702;SDS011;28341;52.064;4.920;2022-09-24T03:03:37;41.65;;;34.60;;
42702;SDS011;28341;52.064;4.920;2022-09-24T03:05:41;38.65;;;32.25;;
42702;SDS011;28341;52.064;4.920;2022-09-24T03:07:46;39.88;;;34.05;;
42702;SDS011;28341;52.064;4.920;2022-09-24T03:09:50;40.25;;;34.00;;
42702;SDS011;28341;52.064;4.920;2022-09-24T03:11:58;41.35;;;34.03;;
42702;SDS011;28341;52.064;4.920;2022-09-24T03:14:02;40.75;;;34.70;;
42702;SDS011;28341;52.064;4.920;2022-09-24T03:16:07;41.17;;;34.03;;
42702;SDS011;28341;52.064;4.920;2022-09-24T03:18:11;42.42;;;35.70;;
42702;SDS011;28341;52.064;4.920;2022-09-24T03:20:16;44.40;;;35.70;;
42702;SDS011;28341;52.064;4.920;2022-09-24T03:22:20;41.83;;;35.15;;
42702;SDS011;28341;52.064;4.920;2022-09-24T03:24:24;40.88;;;34.95;;
42702;SDS011;28341;52.064;4.920;2022-09-24T03:26:29;43.28;;;36.28;;
42702;SDS011;28341;52.064;4.920;2022-09-24T03:28:36;44.67;;;35.78;;
42702;SDS011;28341;52.064;4.920;2022-09-24T03:30:40;45.45;;;35.80;;
42702;SDS011;28341;52.064;4.920;2022-09-24T03:32:57;43.70;;;35.60;;
42702;SDS011;28341;52.064;4.920;2022-09-24T03:35:01;42.72;;;35.50;;
42702;SDS011;28341;52.064;4.920;2022-09-24T03:37:06;45.75;;;37.40;;
42702;SDS011;28341;52.064;4.920;2022-09-24T03:39:10;43.88;;;34.97;;
42702;SDS011;28341;52.064;4.920;2022-09-24T03:41:15;43.92;;;34.28;;
42702;SDS011;28341;52.064;4.920;2022-09-24T03:43:21;43.00;;;35.80;;
42702;SDS011;28341;52.064;4.920;2022-09-24T03:45:28;45.67;;;37.10;;
42702;SDS011;28341;52.064;4.920;2022-09-24T03:47:33;49.15;;;37.83;;
42702;SDS011;28341;52.064;4.920;2022-09-24T03:49:37;47.65;;;36.90;;
42702;SDS011;28341;52.064;4.920;2022-09-24T03:51:42;45.90;;;37.20;;
42702;SDS011;28341;52.064;4.920;2022-09-24T03:53:46;48.60;;;38.30;;
42702;SDS011;28341;52.064;4.920;2022-09-24T03:55:54;45.65;;;38.38;;
42702;SDS011;28341;52.064;4.920;2022-09-24T03:57:59;48.08;;;37.45;;
42702;SDS011;28341;52.064;4.920;2022-09-24T04:00:04;47.70;;;38.15;;
42702;SDS011;28341;52.064;4.920;2022-09-24T04:02:12;48.67;;;38.10;;
42702;SDS011;28341;52.064;4.920;2022-09-24T04:04:16;53.38;;;39.67;;
42702;SDS011;28341;52.064;4.920;2022-09-24T04:06:21;53.95;;;41.90;;
42702;SDS011;28341;52.064;4.920;2022-09-24T04:08:26;52.47;;;41.70;;
42702;SDS011;28341;52.064;4.920;2022-09-24T04:10:31;54.63;;;42.03;;
42702;SDS011;28341;52.064;4.920;2022-09-24T04:12:35;55.92;;;43.40;;
42702;SDS011;28341;52.064;4.920;2022-09-24T04:14:40;56.72;;;43.33;;
42702;SDS011;28341;52.064;4.920;2022-09-24T04:16:44;55.97;;;42.05;;
42702;SDS011;28341;52.064;4.920;2022-09-24T04:18:51;59.40;;;42.90;;
42702;SDS011;28341;52.064;4.920;2022-09-24T04:20:56;58.88;;;45.50;;
42702;SDS011;28341;52.064;4.920;2022-09-24T04:23:02;58.13;;;42.22;;
42702;SDS011;28341;52.064;4.920;2022-09-24T04:25:07;57.05;;;43.17;;
42702;SDS011;28341;52.064;4.920;2022-09-24T04:27:11;58.63;;;44.35;;
42702;SDS011;28341;52.064;4.920;2022-09-24T04:29:16;55.53;;;42.67;;
42702;SDS011;28341;52.064;4.920;2022-09-24T04:31:20;55.55;;;42.92;;
42702;SDS011;28341;52.064;4.920;2022-09-24T04:33:25;57.65;;;43.92;;
42702;SDS011;28341;52.064;4.920;2022-09-24T04:35:32;56.80;;;44.90;;
42702;SDS011;28341;52.064;4.920;2022-09-24T04:37:37;58.60;;;44.10;;
42702;SDS011;28341;52.064;4.920;2022-09-24T04:39:42;58.78;;;45.70;;
42702;SDS011;28341;52.064;4.920;2022-09-24T04:41:46;58.60;;;44.47;;
42702;SDS011;28341;52.064;4.920;2022-09-24T04:43:50;55.22;;;42.78;;
42702;SDS011;28341;52.064;4.920;2022-09-24T04:45:55;52.97;;;42.22;;
42702;SDS011;28341;52.064;4.920;2022-09-24T04:48:01;58.60;;;44.42;;
42702;SDS011;28341;52.064;4.920;2022-09-24T04:50:06;56.38;;;44.70;;
42702;SDS011;28341;52.064;4.920;2022-09-24T04:52:14;57.15;;;43.95;;
42702;SDS011;28341;52.064;4.920;2022-09-24T04:54:19;59.53;;;43.10;;
42702;SDS011;28341;52.064;4.920;2022-09-24T04:56:23;61.83;;;46.80;;
42702;SDS011;28341;52.064;4.920;2022-09-24T04:58:30;58.45;;;44.85;;
42702;SDS011;28341;52.064;4.920;2022-09-24T05:00:34;58.58;;;44.42;;
42702;SDS011;28341;52.064;4.920;2022-09-24T05:02:39;57.72;;;43.30;;
42702;SDS011;28341;52.064;4.920;2022-09-24T05:04:44;58.38;;;45.00;;
42702;SDS011;28341;52.064;4.920;2022-09-24T05:06:49;55.65;;;44.47;;
42702;SDS011;28341;52.064;4.920;2022-09-24T05:08:56;57.97;;;44.50;;
42702;SDS011;28341;52.064;4.920;2022-09-24T05:11:00;58.28;;;45.28;;
42702;SDS011;28341;52.064;4.920;2022-09-24T05:13:05;59.80;;;45.03;;
42702;SDS011;28341;52.064;4.920;2022-09-24T05:15:09;57.97;;;45.83;;
42702;SDS011;28341;52.064;4.920;2022-09-24T05:17:14;60.08;;;45.88;;
42702;SDS011;28341;52.064;4.920;2022-09-24T05:19:18;60.55;;;44.42;;
42702;SDS011;28341;52.064;4.920;2022-09-24T05:21:23;62.30;;;46.13;;
42702;SDS011;28341;52.064;4.920;2022-09-24T05:23:27;59.38;;;46.50;;
42702;SDS011;28341;52.064;4.920;2022-09-24T05:25:34;61.22;;;46.00;;
42702;SDS011;28341;52.064;4.920;2022-09-24T05:27:59;56.58;;;44.13;;
42702;SDS011;28341;52.064;4.920;2022-09-24T05:30:01;55.80;;;44.50;;
42702;SDS011;28341;52.064;4.920;2022-09-24T05:32:06;61.50;;;47.42;;
42702;SDS011;28341;52.064;4.920;2022-09-24T05:34:11;61.85;;;46.08;;
42702;SDS011;28341;52.064;4.920;2022-09-24T05:36:16;56.28;;;43.47;;
42702;SDS011;28341;52.064;4.920;2022-09-24T05:38:22;57.90;;;45.70;;
42702;SDS011;28341;52.064;4.920;2022-09-24T05:40:26;56.30;;;44.95;;
42702;SDS011;28341;52.064;4.920;2022-09-24T05:42:45;59.10;;;46.40;;
42702;SDS011;28341;52.064;4.920;2022-09-24T05:44:50;54.08;;;43.13;;
42702;SDS011;28341;52.064;4.920;2022-09-24T05:46:54;57.50;;;45.70;;
42702;SDS011;28341;52.064;4.920;2022-09-24T05:48:59;59.97;;;47.10;;
42702;SDS011;28341;52.064;4.920;2022-09-24T05:51:03;62.08;;;48.72;;
42702;SDS011;28341;52.064;4.920;2022-09-24T05:53:08;60.78;;;48.05;;
42702;SDS011;28341;52.064;4.920;2022-09-24T05:55:12;60.88;;;46.78;;
42702;SDS011;28341;52.064;4.920;2022-09-24T05:57:17;60.97;;;48.28;;
42702;SDS011;28341;52.064;4.920;2022-09-24T05:59:24;60.85;;;47.63;;
42702;SDS011;28341;52.064;4.920;2022-09-24T06:01:28;63.28;;;50.03;;
42702;SDS011;28341;52.064;4.920;2022-09-24T06:03:32;61.45;;;47.30;;
42702;SDS011;28341;52.064;4.920;2022-09-24T06:05:37;64.60;;;49.00;;
42702;SDS011;28341;52.064;4.920;2022-09-24T06:07:41;66.90;;;50.13;;
42702;SDS011;28341;52.064;4.920;2022-09-24T06:09:46;64.78;;;48.30;;
42702;SDS011;28341;52.064;4.920;2022-09-24T06:11:50;59.88;;;47.30;;
42702;SDS011;28341;52.064;4.920;2022-09-24T06:13:55;60.42;;;46.95;;
42702;SDS011;28341;52.064;4.920;2022-09-24T06:16:03;65.60;;;48.83;;
42702;SDS011;28341;52.064;4.920;2022-09-24T06:18:10;62.85;;;48.53;;
42702;SDS011;28341;52.064;4.920;2022-09-24T06:20:14;62.78;;;48.05;;
42702;SDS011;28341;52.064;4.920;2022-09-24T06:22:19;58.65;;;46.03;;
42702;SDS011;28341;52.064;4.920;2022-09-24T06:24:23;58.63;;;46.22;;
42702;SDS011;28341;52.064;4.920;2022-09-24T06:26:27;63.78;;;47.72;;
42702;SDS011;28341;52.064;4.920;2022-09-24T06:28:32;63.53;;;48.55;;
42702;SDS011;28341;52.064;4.920;2022-09-24T06:30:37;62.75;;;48.45;;
42702;SDS011;28341;52.064;4.920;2022-09-24T06:32:44;64.05;;;47.42;;
42702;SDS011;28341;52.064;4.920;2022-09-24T06:34:48;55.95;;;43.65;;
42702;SDS011;28341;52.064;4.920;2022-09-24T06:36:53;59.63;;;46.08;;
42702;SDS011;28341;52.064;4.920;2022-09-24T06:38:57;55.40;;;43.83;;
42702;SDS011;28341;52.064;4.920;2022-09-24T06:41:03;57.22;;;45.05;;
42702;SDS011;28341;52.064;4.920;2022-09-24T06:43:09;58.50;;;46.08;;
42702;SDS011;28341;52.064;4.920;2022-09-24T06:45:14;56.20;;;44.78;;
42702;SDS011;28341;52.064;4.920;2022-09-24T06:47:19;58.28;;;45.40;;
42702;SDS011;28341;52.064;4.920;2022-09-24T06:49:26;60.92;;;47.20;;
42702;SDS011;28341;52.064;4.920;2022-09-24T06:51:31;59.80;;;47.55;;
42702;SDS011;28341;52.064;4.920;2022-09-24T06:53:35;61.08;;;47.47;;
42702;SDS011;28341;52.064;4.920;2022-09-24T06:55:39;56.75;;;45.47;;
42702;SDS011;28341;52.064;4.920;2022-09-24T06:57:44;56.10;;;45.15;;
42702;SDS011;28341;52.064;4.920;2022-09-24T06:59:48;57.05;;;44.70;;
42702;SDS011;28341;52.064;4.920;2022-09-24T07:01:53;55.92;;;43.45;;
42702;SDS011;28341;52.064;4.920;2022-09-24T07:03:58;53.75;;;43.17;;
42702;SDS011;28341;52.064;4.920;2022-09-24T07:06:07;52.42;;;42.17;;
42702;SDS011;28341;52.064;4.920;2022-09-24T07:08:12;55.10;;;44.47;;
42702;SDS011;28341;52.064;4.920;2022-09-24T07:10:16;53.35;;;41.95;;
42702;SDS011;28341;52.064;4.920;2022-09-24T07:12:22;51.92;;;41.00;;
42702;SDS011;28341;52.064;4.920;2022-09-24T07:14:27;53.10;;;43.22;;
42702;SDS011;28341;52.064;4.920;2022-09-24T07:16:31;52.03;;;42.30;;
42702;SDS011;28341;52.064;4.920;2022-09-24T07:18:35;55.10;;;43.17;;
42702;SDS011;28341;52.064;4.920;2022-09-24T07:20:40;67.53;;;52.55;;
42702;SDS011;28341;52.064;4.920;2022-09-24T07:22:47;54.45;;;44.20;;
42702;SDS011;28341;52.064;4.920;2022-09-24T07:24:51;53.08;;;42.05;;
42702;SDS011;28341;52.064;4.920;2022-09-24T07:26:56;51.33;;;41.15;;
42702;SDS011;28341;52.064;4.920;2022-09-24T07:29:00;55.55;;;43.70;;
42702;SDS011;28341;52.064;4.920;2022-09-24T07:31:04;54.70;;;42.30;;
42702;SDS011;28341;52.064;4.920;2022-09-24T07:33:10;61.30;;;46.47;;
42702;SDS011;28341;52.064;4.920;2022-09-24T07:35:14;54.88;;;42.53;;
42702;SDS011;28341;52.064;4.920;2022-09-24T07:37:20;56.70;;;43.67;;
42702;SDS011;28341;52.064;4.920;2022-09-24T07:39:27;57.72;;;45.05;;
42702;SDS011;28341;52.064;4.920;2022-09-24T07:41:32;56.25;;;42.80;;
42702;SDS011;28341;52.064;4.920;2022-09-24T07:43:36;58.15;;;43.83;;
42702;SDS011;28341;52.064;4.920;2022-09-24T07:45:41;51.75;;;41.58;;
42702;SDS011;28341;52.064;4.920;2022-09-24T07:47:46;58.55;;;44.55;;
42702;SDS011;28341;52.064;4.920;2022-09-24T07:49:51;56.75;;;43.63;;
42702;SDS011;28341;52.064;4.920;2022-09-24T07:51:55;56.17;;;43.47;;
42702;SDS011;28341;52.064;4.920;2022-09-24T07:53:59;60.58;;;45.08;;
42702;SDS011;28341;52.064;4.920;2022-09-24T07:56:06;53.15;;;40.03;;
42702;SDS011;28341;52.064;4.920;2022-09-24T07:58:11;54.40;;;39.60;;
42702;SDS011;28341;52.064;4.920;2022-09-24T08:00:17;48.67;;;36.92;;
42702;SDS011;28341;52.064;4.920;2022-09-24T08:02:22;52.30;;;38.55;;
42702;SDS011;28341;52.064;4.920;2022-09-24T08:04:26;48.22;;;36.10;;
42702;SDS011;28341;52.064;4.920;2022-09-24T08:06:33;97.65;;;75.13;;
42702;SDS011;28341;52.064;4.920;2022-09-24T08:08:37;48.28;;;35.33;;
42702;SDS011;28341;52.064;4.920;2022-09-24T08:10:42;47.33;;;34.65;;
42702;SDS011;28341;52.064;4.920;2022-09-24T08:12:49;48.10;;;33.47;;
42702;SDS011;28341;52.064;4.920;2022-09-24T08:14:53;48.00;;;32.50;;
42702;SDS011;28341;52.064;4.920;2022-09-24T08:16:58;45.40;;;32.25;;
42702;SDS011;28341;52.064;4.920;2022-09-24T08:19:02;48.97;;;33.38;;
42702;SDS011;28341;52.064;4.920;2022-09-24T08:21:12;45.88;;;32.00;;
42702;SDS011;28341;52.064;4.920;2022-09-24T08:23:17;45.67;;;29.92;;
42702;SDS011;28341;52.064;4.920;2022-09-24T08:25:22;40.45;;;27.35;;
42702;SDS011;28341;52.064;4.920;2022-09-24T08:27:26;39.33;;;23.30;;
42702;SDS011;28341;52.064;4.920;2022-09-24T08:29:34;36.45;;;22.13;;
42702;SDS011;28341;52.064;4.920;2022-09-24T08:31:39;38.50;;;20.20;;
42702;SDS011;28341;52.064;4.920;2022-09-24T08:33:44;32.03;;;17.48;;
42702;SDS011;28341;52.064;4.920;2022-09-24T08:35:50;22.33;;;12.30;;
42702;SDS011;28341;52.064;4.920;2022-09-24T08:37:54;21.05;;;10.45;;
42702;SDS011;28341;52.064;4.920;2022-09-24T08:40:00;18.23;;;6.97;;
42702;SDS011;28341;52.064;4.920;2022-09-24T08:42:09;18.67;;;6.50;;
42702;SDS011;28341;52.064;4.920;2022-09-24T08:44:18;14.68;;;9.00;;
42702;SDS011;28341;52.064;4.920;2022-09-24T08:46:44;10.77;;;5.43;;
42702;SDS011;28341;52.064;4.920;2022-09-24T08:49:03;13.38;;;4.65;;
42702;SDS011;28341;52.064;4.920;2022-09-24T08:51:11;14.63;;;4.60;;
42702;SDS011;28341;52.064;4.920;2022-09-24T08:53:19;13.80;;;4.25;;
42702;SDS011;28341;52.064;4.920;2022-09-24T08:55:28;14.73;;;5.10;;
42702;SDS011;28341;52.064;4.920;2022-09-24T08:57:38;8.25;;;4.50;;
42702;SDS011;28341;52.064;4.920;2022-09-24T08:59:49;11.50;;;4.03;;
42702;SDS011;28341;52.064;4.920;2022-09-24T09:01:59;9.75;;;3.50;;
42702;SDS011;28341;52.064;4.920;2022-09-24T09:04:21;10.73;;;3.50;;
42702;SDS011;28341;52.064;4.920;2022-09-24T09:06:35;17.35;;;4.57;;
42702;SDS011;28341;52.064;4.920;2022-09-24T09:08:51;13.75;;;3.00;;
42702;SDS011;28341;52.064;4.920;2022-09-24T09:11:02;10.82;;;2.60;;
42702;SDS011;28341;52.064;4.920;2022-09-24T09:13:09;8.15;;;2.03;;
42702;SDS011;28341;52.064;4.920;2022-09-24T09:15:18;11.55;;;2.85;;
42702;SDS011;28341;52.064;4.920;2022-09-24T09:17:30;10.70;;;2.60;;
42702;SDS011;28341;52.064;4.920;2022-09-24T09:19:41;11.45;;;2.05;;
42702;SDS011;28341;52.064;4.920;2022-09-24T09:21:47;13.40;;;2.40;;
42702;SDS011;28341;52.064;4.920;2022-09-24T09:23:55;10.75;;;2.50;;
42702;SDS011;28341;52.064;4.920;2022-09-24T09:26:00;7.85;;;2.55;;
42702;SDS011;28341;52.064;4.920;2022-09-24T09:28:09;12.48;;;2.25;;
42702;SDS011;28341;52.064;4.920;2022-09-24T09:30:17;6.95;;;2.17;;
42702;SDS011;28341;52.064;4.920;2022-09-24T09:32:26;40.05;;;27.67;;
42702;SDS011;28341;52.064;4.920;2022-09-24T09:34:48;11.75;;;2.75;;
42702;SDS011;28341;52.064;4.920;2022-09-24T09:37:01;13.90;;;2.63;;
42702;SDS011;28341;52.064;4.920;2022-09-24T09:39:20;14.38;;;2.90;;
42702;SDS011;28341;52.064;4.920;2022-09-24T09:41:33;13.73;;;2.90;;
42702;SDS011;28341;52.064;4.920;2022-09-24T09:43:42;11.73;;;2.50;;
42702;SDS011;28341;52.064;4.920;2022-09-24T09:45:51;9.10;;;2.85;;
42702;SDS011;28341;52.064;4.920;2022-09-24T09:48:09;11.93;;;2.47;;
42702;SDS011;28341;52.064;4.920;2022-09-24T09:50:18;12.73;;;3.05;;
42702;SDS011;28341;52.064;4.920;2022-09-24T09:52:29;13.93;;;3.17;;
42702;SDS011;28341;52.064;4.920;2022-09-24T09:54:36;13.00;;;2.97;;
42702;SDS011;28341;52.064;4.920;2022-09-24T09:56:43;16.42;;;3.33;;
42702;SDS011;28341;52.064;4.920;2022-09-24T09:58:49;20.45;;;9.18;;
42702;SDS011;28341;52.064;4.920;2022-09-24T10:01:02;23.75;;;13.10;;
42702;SDS011;28341;52.064;4.920;2022-09-24T10:03:22;20.35;;;4.30;;
42702;SDS011;28341;52.064;4.920;2022-09-24T10:05:28;14.63;;;3.30;;
42702;SDS011;28341;52.064;4.920;2022-09-24T10:07:41;14.30;;;3.50;;
42702;SDS011;28341;52.064;4.920;2022-09-24T10:09:56;17.02;;;2.85;;
42702;SDS011;28341;52.064;4.920;2022-09-24T10:12:14;16.98;;;3.10;;
42702;SDS011;28341;52.064;4.920;2022-09-24T10:14:21;15.10;;;3.33;;
42702;SDS011;28341;52.064;4.920;2022-09-24T10:16:25;18.20;;;4.22;;
42702;SDS011;28341;52.064;4.920;2022-09-24T10:18:33;14.43;;;2.90;;
42702;SDS011;28341;52.064;4.920;2022-09-24T10:20:44;16.92;;;2.80;;
42702;SDS011;28341;52.064;4.920;2022-09-24T10:22:49;10.52;;;2.30;;
42702;SDS011;28341;52.064;4.920;2022-09-24T10:24:56;9.35;;;2.35;;
42702;SDS011;28341;52.064;4.920;2022-09-24T10:27:08;16.15;;;3.88;;
42702;SDS011;28341;52.064;4.920;2022-09-24T10:29:15;15.43;;;3.63;;
42702;SDS011;28341;52.064;4.920;2022-09-24T10:31:35;11.20;;;2.70;;
42702;SDS011;28341;52.064;4.920;2022-09-24T10:33:44;14.23;;;2.80;;
42702;SDS011;28341;52.064;4.920;2022-09-24T10:35:50;12.95;;;2.50;;
42702;SDS011;28341;52.064;4.920;2022-09-24T10:38:13;10.70;;;2.70;;
42702;SDS011;28341;52.064;4.920;2022-09-24T10:40:21;13.50;;;2.63;;
42702;SDS011;28341;52.064;4.920;2022-09-24T10:42:28;18.08;;;3.38;;
42702;SDS011;28341;52.064;4.920;2022-09-24T10:44:34;13.32;;;3.50;;
42702;SDS011;28341;52.064;4.920;2022-09-24T10:49:23;11.30;;;3.10;;
42702;SDS011;28341;52.064;4.920;2022-09-24T10:51:43;17.67;;;2.90;;
42702;SDS011;28341;52.064;4.920;2022-09-24T10:53:55;16.83;;;3.55;;
42702;SDS011;28341;52.064;4.920;2022-09-24T10:56:19;14.60;;;3.03;;
42702;SDS011;28341;52.064;4.920;2022-09-24T10:58:39;14.50;;;2.70;;
42702;SDS011;28341;52.064;4.920;2022-09-24T11:00:57;20.67;;;3.45;;
42702;SDS011;28341;52.064;4.920;2022-09-24T11:05:43;17.45;;;3.10;;
42702;SDS011;28341;52.064;4.920;2022-09-24T11:07:57;14.68;;;3.35;;
42702;SDS011;28341;52.064;4.920;2022-09-24T11:10:13;21.80;;;3.33;;
42702;SDS011;28341;52.064;4.920;2022-09-24T11:12:28;25.33;;;4.20;;
42702;SDS011;28341;52.064;4.920;2022-09-24T11:14:41;18.70;;;3.50;;
42702;SDS011;28341;52.064;4.920;2022-09-24T11:17:10;25.13;;;3.45;;
42702;SDS011;28341;52.064;4.920;2022-09-24T11:19:38;14.68;;;3.45;;
42702;SDS011;28341;52.064;4.920;2022-09-24T11:22:06;21.48;;;3.53;;
42702;SDS011;28341;52.064;4.920;2022-09-24T11:24:23;21.92;;;3.95;;
42702;SDS011;28341;52.064;4.920;2022-09-24T11:26:43;21.23;;;4.75;;
42702;SDS011;28341;52.064;4.920;2022-09-24T11:29:02;20.80;;;3.40;;
42702;SDS011;28341;52.064;4.920;2022-09-24T11:31:33;23.80;;;3.65;;
42702;SDS011;28341;52.064;4.920;2022-09-24T11:33:57;25.35;;;4.28;;
42702;SDS011;28341;52.064;4.920;2022-09-24T11:36:15;21.67;;;3.60;;
42702;SDS011;28341;52.064;4.920;2022-09-24T11:38:41;16.05;;;3.22;;
42702;SDS011;28341;52.064;4.920;2022-09-24T11:41:03;19.45;;;4.18;;
42702;SDS011;28341;52.064;4.920;2022-09-24T11:43:28;20.25;;;3.33;;
42702;SDS011;28341;52.064;4.920;2022-09-24T11:45:52;22.23;;;3.42;;
42702;SDS011;28341;52.064;4.920;2022-09-24T11:48:06;18.88;;;3.17;;
42702;SDS011;28341;52.064;4.920;2022-09-24T11:50:32;16.83;;;4.20;;
42702;SDS011;28341;52.064;4.920;2022-09-24T11:52:43;16.42;;;3.70;;
42702;SDS011;28341;52.064;4.920;2022-09-24T11:54:55;22.50;;;3.42;;
42702;SDS011;28341;52.064;4.920;2022-09-24T11:57:10;21.42;;;3.35;;
42702;SDS011;28341;52.064;4.920;2022-09-24T11:59:21;21.58;;;3.53;;
42702;SDS011;28341;52.064;4.920;2022-09-24T12:01:34;13.55;;;2.90;;
42702;SDS011;28341;52.064;4.920;2022-09-24T12:03:43;21.23;;;3.03;;
42702;SDS011;28341;52.064;4.920;2022-09-24T12:05:53;17.25;;;2.80;;
42702;SDS011;28341;52.064;4.920;2022-09-24T12:08:01;17.48;;;3.30;;
42702;SDS011;28341;52.064;4.920;2022-09-24T12:10:21;15.30;;;3.08;;
42702;SDS011;28341;52.064;4.920;2022-09-24T12:12:30;22.38;;;3.20;;
42702;SDS011;28341;52.064;4.920;2022-09-24T12:14:41;19.67;;;2.90;;
42702;SDS011;28341;52.064;4.920;2022-09-24T12:16:50;22.05;;;3.42;;
42702;SDS011;28341;52.064;4.920;2022-09-24T12:19:00;13.25;;;2.72;;
42702;SDS011;28341;52.064;4.920;2022-09-24T12:21:10;17.63;;;2.70;;
42702;SDS011;28341;52.064;4.920;2022-09-24T12:23:18;18.00;;;2.60;;
42702;SDS011;28341;52.064;4.920;2022-09-24T12:25:31;11.93;;;2.10;;
42702;SDS011;28341;52.064;4.920;2022-09-24T12:27:41;11.20;;;2.10;;
42702;SDS011;28341;52.064;4.920;2022-09-24T12:29:48;13.40;;;2.38;;
42702;SDS011;28341;52.064;4.920;2022-09-24T12:32:11;12.68;;;2.50;;
42702;SDS011;28341;52.064;4.920;2022-09-24T12:34:34;13.02;;;2.22;;
42702;SDS011;28341;52.064;4.920;2022-09-24T12:36:49;17.05;;;2.33;;
42702;SDS011;28341;52.064;4.920;2022-09-24T12:39:00;15.98;;;2.60;;
42702;SDS011;28341;52.064;4.920;2022-09-24T12:41:18;13.23;;;1.98;;
42702;SDS011;28341;52.064;4.920;2022-09-24T12:43:28;18.08;;;2.92;;